Aviation Digital Data Service (ADDS)

Output produced by METARs form (1143 UTC 25 June 2019)
found at http://www.aviationweather.gov/metar/data/
 
OAIX 251058Z 01018G25KT 9999 FEW120 31/M01 A2990 RMK AO2A PK WND 36027/19 SLP033 T03081012 $
TAF OAIX 250700Z 2507/2613 33012G18KT 9999 FEW120 QNH2994INS 
     TEMPO 2507/2511 33015G25KT 520009 
     BECMG 2510/2511 33015G25KT 9999 FEW120 520009 QNH2989INS 
     TEMPO 2511/2516 33020G30KT 
     BECMG 2517/2518 33012G18KT 9999 SKC QNH2997INS 
     TEMPO 2518/2523 33015G25KT 520009 
     BECMG 2523/2524 33009KT 9999 SKC QNH2999INS 
     BECMG 2607/2608 33015G25KT 9999 FEW120 520009 QNH2991INS TX32/2510Z
TN21/2601Z
       
OAHR 251055Z 02015G24KT CAVOK 37/M01 Q1012 RMK A2990 BLU
TAF OAHR 251100Z 2512/2612 02015G25KT 
     BECMG 2514/2516 36008KT 
     BECMG 2519/2521 VRB02KT 
     BECMG 2604/2606 01008KT 
     BECMG 2607/2609 03015G25KT
       
OAJL 251055Z VRB05KT 9999 FEW170 40/01 A2965 RMK AO2A SLP988 T03970006
TAF OAJL 250800Z 2508/2614 VRB06KT 9999 SKC QNH2962INS 
     TEMPO 2511/2516 11010G15KT 
     BECMG 2607/2608 34009KT 9999 SKC QNH2950INS TX39/2508Z TN23/2600Z
       
OAKB 251050Z 01009G19KT 330V080 9999 FEW100 29/M01 Q1016 NOSIG RMK A3003 BLU BLU
TAF OAKB 251105Z 2512/2612 35015KT 9999 FEW100 
     TEMPO 2512/2516 01018G30KT 
     BECMG 2516/2518 CAVOK 
     BECMG 2520/2521 VRB02KT 
     BECMG 2606/2608 35012KT FEW100 
     BECMG 2609/2910 36015G25KT
       
OAKN 251055Z COR 32008KT 9999 CLR 39/M01 A2974 RMK AO2A SLP007 WND DATA ESTMD Q1007 PA3458 DA6857 T03851014 COR 1057
TAF OAKN 250700Z 2507/2613 VRB06KT 9999 SKC QNH2973INS 
     BECMG 2508/2509 27012KT 8000 HZ SKC QNH2969INS 
     BECMG 2516/2517 VRB06KT 9000 HZ SKC QNH2971INS 
     BECMG 2608/2609 26010G15KT 6000 HZ SKC QNH2970INS TX40/2510Z TN25/2600Z
       
TAF OAMS 251105Z 2512/2612 30009KT 9999 NSW FEW080 
     BECMG 2513/2515 19010KT 9999 NSW SKC 
     BECMG 2523/2601 35007KT 9999 NSW FEW080